sensor_id;sensor_type;location;lat;lon;timestamp;P1;durP1;ratioP1;P2;durP2;ratioP2
49458;SDS011;35354;51.296;16.924;2022-07-01T00:00:41;17.55;;;15.82;;
49458;SDS011;35354;51.296;16.924;2022-07-01T00:03:06;17.33;;;15.50;;
49458;SDS011;35354;51.296;16.924;2022-07-01T00:05:32;18.42;;;16.67;;
49458;SDS011;35354;51.296;16.924;2022-07-01T00:07:57;17.25;;;15.55;;
49458;SDS011;35354;51.296;16.924;2022-07-01T00:10:23;17.25;;;15.65;;
49458;SDS011;35354;51.296;16.924;2022-07-01T00:12:48;19.05;;;16.30;;
49458;SDS011;35354;51.296;16.924;2022-07-01T00:15:13;16.30;;;14.70;;
49458;SDS011;35354;51.296;16.924;2022-07-01T00:17:39;15.88;;;14.48;;
49458;SDS011;35354;51.296;16.924;2022-07-01T00:20:05;15.85;;;14.00;;
49458;SDS011;35354;51.296;16.924;2022-07-01T00:22:32;16.88;;;15.25;;
49458;SDS011;35354;51.296;16.924;2022-07-01T00:24:58;17.05;;;15.40;;
49458;SDS011;35354;51.296;16.924;2022-07-01T00:27:24;17.75;;;16.05;;
49458;SDS011;35354;51.296;16.924;2022-07-01T00:29:49;18.02;;;16.25;;
49458;SDS011;35354;51.296;16.924;2022-07-01T00:32:15;18.13;;;16.15;;
49458;SDS011;35354;51.296;16.924;2022-07-01T00:34:40;18.10;;;16.30;;
49458;SDS011;35354;51.296;16.924;2022-07-01T00:37:05;16.80;;;15.10;;
49458;SDS011;35354;51.296;16.924;2022-07-01T00:39:31;15.00;;;13.15;;
49458;SDS011;35354;51.296;16.924;2022-07-01T00:41:59;15.00;;;13.65;;
49458;SDS011;35354;51.296;16.924;2022-07-01T00:44:25;16.73;;;15.15;;
49458;SDS011;35354;51.296;16.924;2022-07-01T00:46:51;17.05;;;15.55;;
49458;SDS011;35354;51.296;16.924;2022-07-01T00:49:17;18.73;;;15.13;;
49458;SDS011;35354;51.296;16.924;2022-07-01T00:51:43;14.85;;;13.43;;
49458;SDS011;35354;51.296;16.924;2022-07-01T00:54:09;16.45;;;14.57;;
49458;SDS011;35354;51.296;16.924;2022-07-01T00:56:35;15.80;;;14.40;;
49458;SDS011;35354;51.296;16.924;2022-07-01T00:59:01;16.45;;;14.30;;
49458;SDS011;35354;51.296;16.924;2022-07-01T01:01:26;16.38;;;14.43;;
49458;SDS011;35354;51.296;16.924;2022-07-01T01:03:52;13.48;;;11.95;;
49458;SDS011;35354;51.296;16.924;2022-07-01T01:06:17;14.63;;;13.32;;
49458;SDS011;35354;51.296;16.924;2022-07-01T01:08:43;17.27;;;13.48;;
49458;SDS011;35354;51.296;16.924;2022-07-01T01:11:10;15.13;;;13.27;;
49458;SDS011;35354;51.296;16.924;2022-07-01T01:13:35;14.73;;;13.13;;
49458;SDS011;35354;51.296;16.924;2022-07-01T01:16:01;15.25;;;12.65;;
49458;SDS011;35354;51.296;16.924;2022-07-01T01:18:26;14.40;;;12.65;;
49458;SDS011;35354;51.296;16.924;2022-07-01T01:20:52;12.65;;;11.05;;
49458;SDS011;35354;51.296;16.924;2022-07-01T01:23:18;12.43;;;11.18;;
49458;SDS011;35354;51.296;16.924;2022-07-01T01:25:44;18.23;;;11.82;;
49458;SDS011;35354;51.296;16.924;2022-07-01T01:28:12;12.55;;;11.25;;
49458;SDS011;35354;51.296;16.924;2022-07-01T01:30:37;11.35;;;10.02;;
49458;SDS011;35354;51.296;16.924;2022-07-01T01:33:03;13.45;;;10.23;;
49458;SDS011;35354;51.296;16.924;2022-07-01T01:35:28;13.63;;;10.40;;
49458;SDS011;35354;51.296;16.924;2022-07-01T01:37:54;13.75;;;10.65;;
49458;SDS011;35354;51.296;16.924;2022-07-01T01:40:19;13.35;;;10.35;;
49458;SDS011;35354;51.296;16.924;2022-07-01T01:42:45;11.32;;;10.05;;
49458;SDS011;35354;51.296;16.924;2022-07-01T01:45:11;11.80;;;9.73;;
49458;SDS011;35354;51.296;16.924;2022-07-01T01:47:37;9.85;;;8.80;;
49458;SDS011;35354;51.296;16.924;2022-07-01T01:50:04;10.50;;;8.73;;
49458;SDS011;35354;51.296;16.924;2022-07-01T01:52:31;11.05;;;8.98;;
49458;SDS011;35354;51.296;16.924;2022-07-01T01:54:57;14.90;;;9.32;;
49458;SDS011;35354;51.296;16.924;2022-07-01T01:57:22;11.27;;;7.97;;
49458;SDS011;35354;51.296;16.924;2022-07-01T01:59:48;10.35;;;8.93;;
49458;SDS011;35354;51.296;16.924;2022-07-01T02:02:13;12.18;;;7.80;;
49458;SDS011;35354;51.296;16.924;2022-07-01T02:04:38;11.35;;;7.95;;
49458;SDS011;35354;51.296;16.924;2022-07-01T02:07:04;12.57;;;7.82;;
49458;SDS011;35354;51.296;16.924;2022-07-01T02:09:30;11.45;;;8.10;;
49458;SDS011;35354;51.296;16.924;2022-07-01T02:11:55;10.02;;;8.20;;
49458;SDS011;35354;51.296;16.924;2022-07-01T02:14:21;10.45;;;7.80;;
49458;SDS011;35354;51.296;16.924;2022-07-01T02:16:47;12.07;;;8.10;;
49458;SDS011;35354;51.296;16.924;2022-07-01T02:19:13;10.05;;;7.70;;
49458;SDS011;35354;51.296;16.924;2022-07-01T02:21:38;8.88;;;7.97;;
49458;SDS011;35354;51.296;16.924;2022-07-01T02:24:04;10.50;;;8.07;;
49458;SDS011;35354;51.296;16.924;2022-07-01T02:26:29;12.13;;;8.60;;
49458;SDS011;35354;51.296;16.924;2022-07-01T02:28:55;12.35;;;8.85;;
49458;SDS011;35354;51.296;16.924;2022-07-01T02:31:20;10.68;;;7.82;;
49458;SDS011;35354;51.296;16.924;2022-07-01T02:33:45;11.05;;;8.18;;
49458;SDS011;35354;51.296;16.924;2022-07-01T02:36:11;10.18;;;8.40;;
49458;SDS011;35354;51.296;16.924;2022-07-01T02:38:36;10.75;;;8.55;;
49458;SDS011;35354;51.296;16.924;2022-07-01T02:41:02;10.45;;;7.68;;
49458;SDS011;35354;51.296;16.924;2022-07-01T02:43:27;14.63;;;8.23;;
49458;SDS011;35354;51.296;16.924;2022-07-01T02:45:53;10.30;;;8.48;;
49458;SDS011;35354;51.296;16.924;2022-07-01T02:48:18;10.55;;;7.97;;
49458;SDS011;35354;51.296;16.924;2022-07-01T02:50:43;13.05;;;8.15;;
49458;SDS011;35354;51.296;16.924;2022-07-01T02:53:09;11.13;;;8.07;;
49458;SDS011;35354;51.296;16.924;2022-07-01T02:55:34;11.43;;;8.77;;
49458;SDS011;35354;51.296;16.924;2022-07-01T02:58:00;13.55;;;9.32;;
49458;SDS011;35354;51.296;16.924;2022-07-01T03:00:25;11.40;;;9.10;;
49458;SDS011;35354;51.296;16.924;2022-07-01T03:02:51;14.68;;;8.25;;
49458;SDS011;35354;51.296;16.924;2022-07-01T03:05:16;9.07;;;8.07;;
49458;SDS011;35354;51.296;16.924;2022-07-01T03:07:42;9.85;;;8.48;;
49458;SDS011;35354;51.296;16.924;2022-07-01T03:10:08;9.55;;;7.82;;
49458;SDS011;35354;51.296;16.924;2022-07-01T03:12:34;9.82;;;8.40;;
49458;SDS011;35354;51.296;16.924;2022-07-01T03:15:17;9.52;;;7.50;;
49458;SDS011;35354;51.296;16.924;2022-07-01T03:17:44;9.02;;;7.75;;
49458;SDS011;35354;51.296;16.924;2022-07-01T03:20:12;11.27;;;7.75;;
49458;SDS011;35354;51.296;16.924;2022-07-01T03:22:39;9.95;;;8.07;;
49458;SDS011;35354;51.296;16.924;2022-07-01T03:25:05;10.27;;;7.55;;
49458;SDS011;35354;51.296;16.924;2022-07-01T03:27:31;10.55;;;7.22;;
49458;SDS011;35354;51.296;16.924;2022-07-01T03:29:57;15.18;;;8.73;;
49458;SDS011;35354;51.296;16.924;2022-07-01T03:32:23;11.18;;;9.02;;
49458;SDS011;35354;51.296;16.924;2022-07-01T03:34:49;10.93;;;8.57;;
49458;SDS011;35354;51.296;16.924;2022-07-01T03:37:16;13.73;;;8.98;;
49458;SDS011;35354;51.296;16.924;2022-07-01T03:39:42;12.77;;;8.70;;
49458;SDS011;35354;51.296;16.924;2022-07-01T03:42:08;13.18;;;7.65;;
49458;SDS011;35354;51.296;16.924;2022-07-01T03:44:35;11.75;;;9.00;;
49458;SDS011;35354;51.296;16.924;2022-07-01T03:47:01;11.32;;;8.90;;
49458;SDS011;35354;51.296;16.924;2022-07-01T03:49:27;15.07;;;8.35;;
49458;SDS011;35354;51.296;16.924;2022-07-01T03:51:53;13.45;;;9.30;;
49458;SDS011;35354;51.296;16.924;2022-07-01T03:54:19;9.98;;;8.50;;
49458;SDS011;35354;51.296;16.924;2022-07-01T03:57:07;10.65;;;8.60;;
49458;SDS011;35354;51.296;16.924;2022-07-01T03:59:35;13.85;;;9.88;;
49458;SDS011;35354;51.296;16.924;2022-07-01T04:02:04;13.23;;;10.15;;
49458;SDS011;35354;51.296;16.924;2022-07-01T04:04:30;12.35;;;9.75;;
49458;SDS011;35354;51.296;16.924;2022-07-01T04:06:57;12.32;;;9.60;;
49458;SDS011;35354;51.296;16.924;2022-07-01T04:09:23;14.05;;;8.50;;
49458;SDS011;35354;51.296;16.924;2022-07-01T04:11:50;11.27;;;8.95;;
49458;SDS011;35354;51.296;16.924;2022-07-01T04:14:16;9.65;;;8.75;;
49458;SDS011;35354;51.296;16.924;2022-07-01T04:16:42;12.57;;;9.00;;
49458;SDS011;35354;51.296;16.924;2022-07-01T04:19:09;14.43;;;9.52;;
49458;SDS011;35354;51.296;16.924;2022-07-01T04:21:35;12.38;;;9.48;;
49458;SDS011;35354;51.296;16.924;2022-07-01T04:24:19;14.90;;;9.70;;
49458;SDS011;35354;51.296;16.924;2022-07-01T04:26:45;12.85;;;9.68;;
49458;SDS011;35354;51.296;16.924;2022-07-01T04:29:10;12.88;;;9.80;;
49458;SDS011;35354;51.296;16.924;2022-07-01T04:31:36;16.45;;;10.05;;
49458;SDS011;35354;51.296;16.924;2022-07-01T04:34:03;16.35;;;9.88;;
49458;SDS011;35354;51.296;16.924;2022-07-01T04:36:29;16.10;;;10.98;;
49458;SDS011;35354;51.296;16.924;2022-07-01T04:38:55;16.23;;;10.55;;
49458;SDS011;35354;51.296;16.924;2022-07-01T04:41:21;15.65;;;11.45;;
49458;SDS011;35354;51.296;16.924;2022-07-01T04:44:05;13.07;;;10.48;;
49458;SDS011;35354;51.296;16.924;2022-07-01T04:46:30;15.30;;;11.50;;
49458;SDS011;35354;51.296;16.924;2022-07-01T04:48:56;13.52;;;10.30;;
49458;SDS011;35354;51.296;16.924;2022-07-01T04:51:21;22.02;;;11.20;;
49458;SDS011;35354;51.296;16.924;2022-07-01T04:53:47;14.07;;;11.25;;
49458;SDS011;35354;51.296;16.924;2022-07-01T04:56:13;14.52;;;11.50;;
49458;SDS011;35354;51.296;16.924;2022-07-01T04:58:39;16.95;;;13.75;;
49458;SDS011;35354;51.296;16.924;2022-07-01T05:01:05;12.77;;;10.95;;
49458;SDS011;35354;51.296;16.924;2022-07-01T05:03:30;16.02;;;11.52;;
49458;SDS011;35354;51.296;16.924;2022-07-01T05:05:56;18.10;;;12.77;;
49458;SDS011;35354;51.296;16.924;2022-07-01T05:08:21;17.77;;;11.80;;
49458;SDS011;35354;51.296;16.924;2022-07-01T05:10:47;20.23;;;14.27;;
49458;SDS011;35354;51.296;16.924;2022-07-01T05:13:12;15.10;;;13.57;;
49458;SDS011;35354;51.296;16.924;2022-07-01T05:15:38;15.93;;;12.85;;
49458;SDS011;35354;51.296;16.924;2022-07-01T05:18:03;12.98;;;11.60;;
49458;SDS011;35354;51.296;16.924;2022-07-01T05:20:47;14.43;;;12.90;;
49458;SDS011;35354;51.296;16.924;2022-07-01T05:23:31;16.92;;;12.93;;
49458;SDS011;35354;51.296;16.924;2022-07-01T05:25:56;15.48;;;13.10;;
49458;SDS011;35354;51.296;16.924;2022-07-01T05:28:22;14.32;;;12.32;;
49458;SDS011;35354;51.296;16.924;2022-07-01T05:30:47;14.43;;;12.57;;
49458;SDS011;35354;51.296;16.924;2022-07-01T05:33:12;14.40;;;12.15;;
49458;SDS011;35354;51.296;16.924;2022-07-01T05:35:38;20.02;;;14.43;;
49458;SDS011;35354;51.296;16.924;2022-07-01T05:38:03;15.95;;;14.05;;
49458;SDS011;35354;51.296;16.924;2022-07-01T05:40:29;15.82;;;13.60;;
49458;SDS011;35354;51.296;16.924;2022-07-01T05:42:54;15.23;;;11.07;;
49458;SDS011;35354;51.296;16.924;2022-07-01T05:45:20;16.15;;;12.90;;
49458;SDS011;35354;51.296;16.924;2022-07-01T05:47:45;16.02;;;11.27;;
49458;SDS011;35354;51.296;16.924;2022-07-01T05:50:11;17.65;;;12.93;;
49458;SDS011;35354;51.296;16.924;2022-07-01T05:52:36;14.82;;;12.07;;
49458;SDS011;35354;51.296;16.924;2022-07-01T05:55:02;17.42;;;13.80;;
49458;SDS011;35354;51.296;16.924;2022-07-01T05:57:27;12.77;;;11.38;;
49458;SDS011;35354;51.296;16.924;2022-07-01T05:59:53;13.27;;;11.00;;
49458;SDS011;35354;51.296;16.924;2022-07-01T06:02:18;16.65;;;11.23;;
49458;SDS011;35354;51.296;16.924;2022-07-01T06:04:44;18.95;;;12.23;;
49458;SDS011;35354;51.296;16.924;2022-07-01T06:07:09;17.92;;;11.27;;
49458;SDS011;35354;51.296;16.924;2022-07-01T06:09:38;12.27;;;10.52;;
49458;SDS011;35354;51.296;16.924;2022-07-01T06:12:03;13.98;;;10.57;;
49458;SDS011;35354;51.296;16.924;2022-07-01T06:14:30;12.70;;;10.77;;
49458;SDS011;35354;51.296;16.924;2022-07-01T06:16:55;12.38;;;10.63;;
49458;SDS011;35354;51.296;16.924;2022-07-01T06:19:21;12.70;;;11.07;;
49458;SDS011;35354;51.296;16.924;2022-07-01T06:21:46;13.38;;;10.50;;
49458;SDS011;35354;51.296;16.924;2022-07-01T06:24:12;12.75;;;10.23;;
49458;SDS011;35354;51.296;16.924;2022-07-01T06:26:37;15.25;;;11.23;;
49458;SDS011;35354;51.296;16.924;2022-07-01T06:29:03;11.50;;;10.40;;
49458;SDS011;35354;51.296;16.924;2022-07-01T06:31:28;14.98;;;9.98;;
49458;SDS011;35354;51.296;16.924;2022-07-01T06:33:54;12.93;;;10.13;;
49458;SDS011;35354;51.296;16.924;2022-07-01T06:36:20;12.88;;;10.70;;
49458;SDS011;35354;51.296;16.924;2022-07-01T06:38:45;13.10;;;9.43;;
49458;SDS011;35354;51.296;16.924;2022-07-01T06:41:11;10.85;;;9.75;;
49458;SDS011;35354;51.296;16.924;2022-07-01T06:43:52;9.82;;;8.88;;
49458;SDS011;35354;51.296;16.924;2022-07-01T06:46:25;12.65;;;8.63;;
49458;SDS011;35354;51.296;16.924;2022-07-01T06:48:51;10.18;;;9.02;;
49458;SDS011;35354;51.296;16.924;2022-07-01T06:51:17;11.88;;;9.10;;
49458;SDS011;35354;51.296;16.924;2022-07-01T06:53:43;12.93;;;8.55;;
49458;SDS011;35354;51.296;16.924;2022-07-01T06:56:10;10.35;;;8.20;;
49458;SDS011;35354;51.296;16.924;2022-07-01T06:58:36;11.00;;;8.23;;
49458;SDS011;35354;51.296;16.924;2022-07-01T07:01:02;9.65;;;7.22;;
49458;SDS011;35354;51.296;16.924;2022-07-01T07:03:28;11.55;;;7.72;;
49458;SDS011;35354;51.296;16.924;2022-07-01T07:05:54;11.00;;;8.23;;
49458;SDS011;35354;51.296;16.924;2022-07-01T07:08:19;11.90;;;7.72;;
49458;SDS011;35354;51.296;16.924;2022-07-01T07:10:45;8.55;;;7.50;;
49458;SDS011;35354;51.296;16.924;2022-07-01T07:13:10;10.30;;;7.50;;
49458;SDS011;35354;51.296;16.924;2022-07-01T07:15:35;8.70;;;7.35;;
49458;SDS011;35354;51.296;16.924;2022-07-01T07:18:01;11.13;;;7.47;;
49458;SDS011;35354;51.296;16.924;2022-07-01T07:20:27;13.25;;;7.60;;
49458;SDS011;35354;51.296;16.924;2022-07-01T07:22:53;14.40;;;7.63;;
49458;SDS011;35354;51.296;16.924;2022-07-01T07:25:19;11.23;;;7.63;;
49458;SDS011;35354;51.296;16.924;2022-07-01T07:27:44;8.55;;;7.43;;
49458;SDS011;35354;51.296;16.924;2022-07-01T07:30:14;9.77;;;7.50;;
49458;SDS011;35354;51.296;16.924;2022-07-01T07:32:39;7.88;;;6.95;;
49458;SDS011;35354;51.296;16.924;2022-07-01T07:35:05;8.93;;;6.90;;
49458;SDS011;35354;51.296;16.924;2022-07-01T07:37:32;10.15;;;7.50;;
49458;SDS011;35354;51.296;16.924;2022-07-01T07:40:02;8.50;;;7.10;;
49458;SDS011;35354;51.296;16.924;2022-07-01T07:42:31;8.52;;;6.75;;
49458;SDS011;35354;51.296;16.924;2022-07-01T07:44:57;8.98;;;7.00;;
49458;SDS011;35354;51.296;16.924;2022-07-01T07:47:22;7.88;;;6.53;;
49458;SDS011;35354;51.296;16.924;2022-07-01T07:49:47;10.88;;;6.78;;
49458;SDS011;35354;51.296;16.924;2022-07-01T07:52:13;9.43;;;6.75;;
49458;SDS011;35354;51.296;16.924;2022-07-01T07:54:38;8.20;;;6.90;;
49458;SDS011;35354;51.296;16.924;2022-07-01T07:57:04;7.13;;;6.40;;
49458;SDS011;35354;51.296;16.924;2022-07-01T07:59:30;8.85;;;6.13;;
49458;SDS011;35354;51.296;16.924;2022-07-01T08:01:56;10.15;;;7.05;;
49458;SDS011;35354;51.296;16.924;2022-07-01T08:04:21;7.57;;;6.63;;
49458;SDS011;35354;51.296;16.924;2022-07-01T08:06:47;11.27;;;7.00;;
49458;SDS011;35354;51.296;16.924;2022-07-01T08:09:12;11.25;;;7.55;;
49458;SDS011;35354;51.296;16.924;2022-07-01T08:11:38;15.90;;;8.65;;
49458;SDS011;35354;51.296;16.924;2022-07-01T08:14:04;9.45;;;6.90;;
49458;SDS011;35354;51.296;16.924;2022-07-01T08:16:29;10.15;;;7.22;;
49458;SDS011;35354;51.296;16.924;2022-07-01T08:18:55;12.70;;;8.00;;
49458;SDS011;35354;51.296;16.924;2022-07-01T08:21:20;10.23;;;7.72;;
49458;SDS011;35354;51.296;16.924;2022-07-01T08:23:46;12.00;;;8.45;;
49458;SDS011;35354;51.296;16.924;2022-07-01T08:26:11;12.13;;;8.23;;
49458;SDS011;35354;51.296;16.924;2022-07-01T08:28:39;17.50;;;9.95;;
49458;SDS011;35354;51.296;16.924;2022-07-01T08:31:04;10.90;;;8.88;;
49458;SDS011;35354;51.296;16.924;2022-07-01T08:33:29;10.77;;;8.40;;
49458;SDS011;35354;51.296;16.924;2022-07-01T08:35:55;11.82;;;8.68;;
49458;SDS011;35354;51.296;16.924;2022-07-01T08:38:20;11.88;;;8.32;;
49458;SDS011;35354;51.296;16.924;2022-07-01T08:40:46;12.48;;;8.27;;
49458;SDS011;35354;51.296;16.924;2022-07-01T08:43:11;11.57;;;8.48;;
49458;SDS011;35354;51.296;16.924;2022-07-01T08:45:37;11.10;;;9.07;;
49458;SDS011;35354;51.296;16.924;2022-07-01T08:48:03;11.25;;;8.43;;
49458;SDS011;35354;51.296;16.924;2022-07-01T08:50:29;12.90;;;8.65;;
49458;SDS011;35354;51.296;16.924;2022-07-01T08:52:56;13.02;;;8.05;;
49458;SDS011;35354;51.296;16.924;2022-07-01T08:55:22;12.60;;;9.23;;
49458;SDS011;35354;51.296;16.924;2022-07-01T08:57:49;10.13;;;9.13;;
49458;SDS011;35354;51.296;16.924;2022-07-01T09:00:16;14.48;;;9.40;;
49458;SDS011;35354;51.296;16.924;2022-07-01T09:03:01;11.45;;;9.38;;
49458;SDS011;35354;51.296;16.924;2022-07-01T09:05:29;12.98;;;9.32;;
49458;SDS011;35354;51.296;16.924;2022-07-01T09:07:56;12.82;;;9.48;;
49458;SDS011;35354;51.296;16.924;2022-07-01T09:10:22;14.10;;;9.60;;
49458;SDS011;35354;51.296;16.924;2022-07-01T09:12:48;10.30;;;8.68;;
49458;SDS011;35354;51.296;16.924;2022-07-01T09:15:21;14.45;;;10.18;;
49458;SDS011;35354;51.296;16.924;2022-07-01T09:17:49;12.02;;;9.13;;
49458;SDS011;35354;51.296;16.924;2022-07-01T09:20:25;12.63;;;9.98;;
49458;SDS011;35354;51.296;16.924;2022-07-01T09:22:58;12.35;;;9.70;;
49458;SDS011;35354;51.296;16.924;2022-07-01T09:25:29;18.38;;;9.80;;
49458;SDS011;35354;51.296;16.924;2022-07-01T09:28:03;12.20;;;9.65;;
49458;SDS011;35354;51.296;16.924;2022-07-01T09:30:31;19.23;;;11.90;;
49458;SDS011;35354;51.296;16.924;2022-07-01T09:33:04;17.17;;;10.50;;
49458;SDS011;35354;51.296;16.924;2022-07-01T09:35:34;14.73;;;10.68;;
49458;SDS011;35354;51.296;16.924;2022-07-01T09:38:01;11.35;;;10.10;;
49458;SDS011;35354;51.296;16.924;2022-07-01T09:40:44;13.43;;;10.23;;
49458;SDS011;35354;51.296;16.924;2022-07-01T09:50:59;11.80;;;10.57;;
49458;SDS011;35354;51.296;16.924;2022-07-01T09:53:26;11.90;;;10.73;;
49458;SDS011;35354;51.296;16.924;2022-07-01T09:55:51;12.45;;;10.75;;
49458;SDS011;35354;51.296;16.924;2022-07-01T09:58:17;19.38;;;10.70;;
49458;SDS011;35354;51.296;16.924;2022-07-01T10:00:42;12.93;;;10.68;;
49458;SDS011;35354;51.296;16.924;2022-07-01T10:03:08;11.95;;;10.73;;
49458;SDS011;35354;51.296;16.924;2022-07-01T10:05:37;12.48;;;10.75;;
49458;SDS011;35354;51.296;16.924;2022-07-01T10:08:35;13.05;;;9.85;;
49458;SDS011;35354;51.296;16.924;2022-07-01T10:13:43;13.23;;;11.00;;
49458;SDS011;35354;51.296;16.924;2022-07-01T10:16:09;11.57;;;10.20;;
49458;SDS011;35354;51.296;16.924;2022-07-01T10:18:36;13.50;;;11.38;;
49458;SDS011;35354;51.296;16.924;2022-07-01T10:21:01;13.93;;;11.00;;
49458;SDS011;35354;51.296;16.924;2022-07-01T10:23:36;12.73;;;11.43;;
49458;SDS011;35354;51.296;16.924;2022-07-01T10:26:05;14.02;;;10.50;;
49458;SDS011;35354;51.296;16.924;2022-07-01T10:31:09;11.13;;;9.40;;
49458;SDS011;35354;51.296;16.924;2022-07-01T10:41:25;15.85;;;10.38;;
49458;SDS011;35354;51.296;16.924;2022-07-01T10:43:53;10.13;;;9.13;;
49458;SDS011;35354;51.296;16.924;2022-07-01T10:49:12;11.15;;;10.00;;
49458;SDS011;35354;51.296;16.924;2022-07-01T10:51:45;11.27;;;10.07;;
49458;SDS011;35354;51.296;16.924;2022-07-01T11:02:32;15.90;;;10.80;;
49458;SDS011;35354;51.296;16.924;2022-07-01T11:07:43;14.07;;;9.63;;
49458;SDS011;35354;51.296;16.924;2022-07-01T11:10:10;15.00;;;9.80;;
49458;SDS011;35354;51.296;16.924;2022-07-01T11:12:37;10.10;;;9.10;;
49458;SDS011;35354;51.296;16.924;2022-07-01T11:15:03;13.18;;;9.40;;
49458;SDS011;35354;51.296;16.924;2022-07-01T11:17:31;9.68;;;8.50;;
49458;SDS011;35354;51.296;16.924;2022-07-01T11:19:57;10.32;;;8.93;;
49458;SDS011;35354;51.296;16.924;2022-07-01T11:22:27;14.50;;;10.20;;
49458;SDS011;35354;51.296;16.924;2022-07-01T11:24:55;10.30;;;9.13;;
49458;SDS011;35354;51.296;16.924;2022-07-01T11:27:23;9.13;;;8.23;;
49458;SDS011;35354;51.296;16.924;2022-07-01T11:29:53;8.95;;;8.15;;
49458;SDS011;35354;51.296;16.924;2022-07-01T11:32:30;11.18;;;8.98;;
49458;SDS011;35354;51.296;16.924;2022-07-01T11:34:58;15.02;;;9.73;;
49458;SDS011;35354;51.296;16.924;2022-07-01T11:37:26;12.88;;;8.30;;
49458;SDS011;35354;51.296;16.924;2022-07-01T11:40:13;9.65;;;8.65;;
49458;SDS011;35354;51.296;16.924;2022-07-01T11:42:40;9.85;;;8.85;;
49458;SDS011;35354;51.296;16.924;2022-07-01T11:45:07;10.65;;;9.15;;
49458;SDS011;35354;51.296;16.924;2022-07-01T11:47:33;11.18;;;9.10;;
49458;SDS011;35354;51.296;16.924;2022-07-01T11:49:59;12.60;;;8.68;;
49458;SDS011;35354;51.296;16.924;2022-07-01T11:52:25;11.25;;;9.35;;
49458;SDS011;35354;51.296;16.924;2022-07-01T11:54:53;14.10;;;9.32;;
49458;SDS011;35354;51.296;16.924;2022-07-01T11:57:23;14.98;;;10.07;;
49458;SDS011;35354;51.296;16.924;2022-07-01T11:59:53;10.35;;;9.23;;
49458;SDS011;35354;51.296;16.924;2022-07-01T12:02:20;11.35;;;9.20;;
49458;SDS011;35354;51.296;16.924;2022-07-01T12:04:47;14.88;;;9.57;;
49458;SDS011;35354;51.296;16.924;2022-07-01T12:07:14;12.90;;;8.45;;
49458;SDS011;35354;51.296;16.924;2022-07-01T12:09:41;13.02;;;8.40;;
49458;SDS011;35354;51.296;16.924;2022-07-01T12:12:14;11.68;;;7.57;;
49458;SDS011;35354;51.296;16.924;2022-07-01T12:14:48;11.93;;;7.38;;
49458;SDS011;35354;51.296;16.924;2022-07-01T12:17:15;12.82;;;7.43;;
49458;SDS011;35354;51.296;16.924;2022-07-01T12:19:42;10.20;;;6.65;;
49458;SDS011;35354;51.296;16.924;2022-07-01T12:22:10;15.40;;;7.35;;
49458;SDS011;35354;51.296;16.924;2022-07-01T12:24:38;15.30;;;7.82;;
49458;SDS011;35354;51.296;16.924;2022-07-01T12:27:05;9.88;;;7.47;;
49458;SDS011;35354;51.296;16.924;2022-07-01T12:32:16;9.45;;;8.10;;
49458;SDS011;35354;51.296;16.924;2022-07-01T12:34:48;7.90;;;6.57;;
49458;SDS011;35354;51.296;16.924;2022-07-01T12:37:17;12.65;;;7.13;;
49458;SDS011;35354;51.296;16.924;2022-07-01T12:39:43;8.63;;;7.32;;
49458;SDS011;35354;51.296;16.924;2022-07-01T12:42:18;10.05;;;7.35;;
49458;SDS011;35354;51.296;16.924;2022-07-01T12:44:53;9.27;;;8.18;;
49458;SDS011;35354;51.296;16.924;2022-07-01T12:47:23;8.80;;;8.00;;
49458;SDS011;35354;51.296;16.924;2022-07-01T12:50:08;10.25;;;8.38;;
49458;SDS011;35354;51.296;16.924;2022-07-01T12:52:33;8.80;;;7.90;;
49458;SDS011;35354;51.296;16.924;2022-07-01T12:54:59;9.05;;;7.93;;
49458;SDS011;35354;51.296;16.924;2022-07-01T12:57:28;8.82;;;7.85;;
49458;SDS011;35354;51.296;16.924;2022-07-01T12:59:57;12.45;;;7.40;;
49458;SDS011;35354;51.296;16.924;2022-07-01T13:02:23;8.50;;;7.18;;
49458;SDS011;35354;51.296;16.924;2022-07-01T13:04:49;8.73;;;7.07;;
49458;SDS011;35354;51.296;16.924;2022-07-01T13:07:15;8.20;;;6.57;;
49458;SDS011;35354;51.296;16.924;2022-07-01T13:09:40;9.13;;;7.07;;
49458;SDS011;35354;51.296;16.924;2022-07-01T13:12:06;7.53;;;6.65;;
49458;SDS011;35354;51.296;16.924;2022-07-01T13:14:32;7.65;;;6.65;;
49458;SDS011;35354;51.296;16.924;2022-07-01T13:16:57;8.15;;;6.45;;
49458;SDS011;35354;51.296;16.924;2022-07-01T13:19:23;10.63;;;7.20;;
49458;SDS011;35354;51.296;16.924;2022-07-01T13:21:48;7.10;;;5.90;;
49458;SDS011;35354;51.296;16.924;2022-07-01T13:24:14;8.68;;;6.22;;
49458;SDS011;35354;51.296;16.924;2022-07-01T13:26:39;10.02;;;7.10;;
49458;SDS011;35354;51.296;16.924;2022-07-01T13:29:05;7.53;;;5.88;;
49458;SDS011;35354;51.296;16.924;2022-07-01T13:31:31;7.53;;;6.07;;
49458;SDS011;35354;51.296;16.924;2022-07-01T13:33:57;8.75;;;6.90;;
49458;SDS011;35354;51.296;16.924;2022-07-01T13:36:22;6.88;;;6.05;;
49458;SDS011;35354;51.296;16.924;2022-07-01T13:38:48;8.93;;;7.13;;
49458;SDS011;35354;51.296;16.924;2022-07-01T13:41:14;7.30;;;5.80;;
49458;SDS011;35354;51.296;16.924;2022-07-01T13:43:41;7.85;;;6.15;;
49458;SDS011;35354;51.296;16.924;2022-07-01T13:46:07;7.68;;;6.65;;
49458;SDS011;35354;51.296;16.924;2022-07-01T13:48:32;9.20;;;7.10;;
49458;SDS011;35354;51.296;16.924;2022-07-01T13:50:58;9.07;;;6.95;;
49458;SDS011;35354;51.296;16.924;2022-07-01T13:53:23;8.07;;;7.28;;
49458;SDS011;35354;51.296;16.924;2022-07-01T13:55:48;10.55;;;8.20;;
49458;SDS011;35354;51.296;16.924;2022-07-01T13:58:14;10.75;;;8.05;;
49458;SDS011;35354;51.296;16.924;2022-07-01T14:00:40;10.80;;;8.07;;
49458;SDS011;35354;51.296;16.924;2022-07-01T14:03:06;9.73;;;8.68;;
49458;SDS011;35354;51.296;16.924;2022-07-01T14:05:32;11.82;;;8.68;;
49458;SDS011;35354;51.296;16.924;2022-07-01T14:07:57;8.90;;;8.00;;
49458;SDS011;35354;51.296;16.924;2022-07-01T14:10:23;9.07;;;8.07;;
49458;SDS011;35354;51.296;16.924;2022-07-01T14:12:48;9.32;;;8.35;;
49458;SDS011;35354;51.296;16.924;2022-07-01T14:15:14;8.95;;;7.60;;
49458;SDS011;35354;51.296;16.924;2022-07-01T14:17:39;10.82;;;8.80;;
49458;SDS011;35354;51.296;16.924;2022-07-01T14:20:05;9.30;;;7.93;;
49458;SDS011;35354;51.296;16.924;2022-07-01T14:22:31;9.18;;;8.38;;
49458;SDS011;35354;51.296;16.924;2022-07-01T14:24:57;9.52;;;8.70;;
49458;SDS011;35354;51.296;16.924;2022-07-01T14:27:22;9.93;;;8.25;;
49458;SDS011;35354;51.296;16.924;2022-07-01T14:29:48;11.60;;;8.23;;
49458;SDS011;35354;51.296;16.924;2022-07-01T14:32:14;9.07;;;8.18;;
49458;SDS011;35354;51.296;16.924;2022-07-01T14:34:39;9.95;;;8.48;;
49458;SDS011;35354;51.296;16.924;2022-07-01T14:37:05;12.55;;;10.25;;
49458;SDS011;35354;51.296;16.924;2022-07-01T14:39:30;15.23;;;13.52;;
49458;SDS011;35354;51.296;16.924;2022-07-01T14:41:55;17.27;;;13.13;;
49458;SDS011;35354;51.296;16.924;2022-07-01T14:44:21;16.33;;;14.50;;
49458;SDS011;35354;51.296;16.924;2022-07-01T14:46:46;16.67;;;15.07;;
49458;SDS011;35354;51.296;16.924;2022-07-01T14:49:12;15.50;;;13.95;;
49458;SDS011;35354;51.296;16.924;2022-07-01T14:51:39;16.85;;;15.18;;
49458;SDS011;35354;51.296;16.924;2022-07-01T14:54:05;19.42;;;14.88;;